createdAt,value
2019-05-13T00:00:03.703Z,11.84
2019-05-13T00:00:44.563Z,11.8
2019-05-13T00:01:23.897Z,11.78
2019-05-13T00:02:04.788Z,11.86
2019-05-13T00:02:44.935Z,11.83
2019-05-13T00:03:25.528Z,11.86
2019-05-13T00:04:06.099Z,11.86
2019-05-13T00:04:46.653Z,11.86
2019-05-13T00:05:27.263Z,11.83
2019-05-13T00:06:07.826Z,11.81
2019-05-13T00:06:53.370Z,11.81
2019-05-13T00:07:28.989Z,11.87
2019-05-13T00:08:09.542Z,11.77
2019-05-13T00:08:50.125Z,11.73
2019-05-13T00:09:30.699Z,11.77
2019-05-13T00:10:11.258Z,11.75
2019-05-13T00:10:53.958Z,11.73
2019-05-13T00:11:34.581Z,11.83
2019-05-13T00:12:13.723Z,11.7
2019-05-13T00:12:53.912Z,11.7
2019-05-13T00:13:34.095Z,11.75
2019-05-13T00:14:14.663Z,11.7
2019-05-13T00:14:55.230Z,11.77
2019-05-13T00:15:35.783Z,11.7
2019-05-13T00:16:16.341Z,11.7
2019-05-13T00:16:56.927Z,11.8
2019-05-13T00:17:37.489Z,11.72
2019-05-13T00:18:18.059Z,11.81
2019-05-13T00:18:58.595Z,11.77
2019-05-13T00:19:39.148Z,11.75
2019-05-13T00:20:19.717Z,11.73
2019-05-13T00:21:00.377Z,11.8
2019-05-13T00:21:40.995Z,11.73
2019-05-13T00:22:23.394Z,11.81
2019-05-13T00:23:03.826Z,11.78
2019-05-13T00:23:44.142Z,11.87
2019-05-13T00:24:24.233Z,11.83
2019-05-13T00:25:04.189Z,11.78
2019-05-13T00:25:44.700Z,11.8
2019-05-13T00:26:25.053Z,11.84
2019-05-13T00:27:05.611Z,11.81
2019-05-13T00:27:46.196Z,11.8
2019-05-13T00:28:26.783Z,11.8
2019-05-13T00:29:07.338Z,11.75
2019-05-13T00:29:47.924Z,11.8
2019-05-13T00:30:28.501Z,11.73
2019-05-13T00:31:09.101Z,11.75
2019-05-13T00:31:49.630Z,11.7
2019-05-13T00:32:30.231Z,11.84
2019-05-13T00:33:10.814Z,11.73
2019-05-13T00:33:53.178Z,11.8
2019-05-13T00:34:33.788Z,11.8
2019-05-13T00:35:14.108Z,11.72
2019-05-13T00:35:53.490Z,11.8
2019-05-13T00:36:33.857Z,11.78
2019-05-13T00:37:14.783Z,11.69
2019-05-13T00:37:54.830Z,11.73
2019-05-13T00:38:35.392Z,11.78
2019-05-13T00:39:16.004Z,11.75
2019-05-13T00:39:56.588Z,11.78
2019-05-13T00:40:37.228Z,11.68
2019-05-13T00:41:17.797Z,11.77
2019-05-13T00:41:58.386Z,11.75
2019-05-13T00:42:38.958Z,11.77
2019-05-13T00:43:19.526Z,11.66
2019-05-13T00:44:00.108Z,11.68
2019-05-13T00:44:40.658Z,11.63
2019-05-13T00:45:21.225Z,11.72
2019-05-13T00:46:03.677Z,11.66
2019-05-13T00:46:44.076Z,11.7
2019-05-13T00:47:23.628Z,11.69
2019-05-13T00:48:04.451Z,11.55
2019-05-13T00:48:44.149Z,11.59
2019-05-13T00:49:24.649Z,11.6
2019-05-13T00:50:05.230Z,11.54
2019-05-13T00:50:45.785Z,11.66
2019-05-13T00:51:26.355Z,11.57
2019-05-13T00:52:06.909Z,11.52
2019-05-13T00:52:47.515Z,11.51
2019-05-13T00:53:28.080Z,11.59
2019-05-13T00:54:08.692Z,11.55
2019-05-13T00:54:49.322Z,11.59
2019-05-13T00:55:29.910Z,11.59
2019-05-13T00:56:10.502Z,11.48
2019-05-13T00:56:51.073Z,11.54
2019-05-13T00:57:31.612Z,11.54
2019-05-13T00:58:13.925Z,11.54
2019-05-13T00:58:54.074Z,11.45
2019-05-13T00:59:33.960Z,11.48
2019-05-13T01:00:14.352Z,11.51
2019-05-13T01:00:54.807Z,11.5
2019-05-13T01:01:35.236Z,11.51
2019-05-13T01:02:15.805Z,11.37
2019-05-13T01:02:56.400Z,11.33
2019-05-13T01:03:36.984Z,11.4
2019-05-13T01:04:17.542Z,11.41
2019-05-13T01:04:58.129Z,11.41
2019-05-13T01:05:38.723Z,11.33
2019-05-13T01:06:19.284Z,11.27
2019-05-13T01:06:59.838Z,11.25
2019-05-13T01:07:40.399Z,11.29
2019-05-13T01:08:20.981Z,11.26
2019-05-13T01:09:04.008Z,11.25
2019-05-13T01:09:44.174Z,11.26
2019-05-13T01:10:23.746Z,11.23
2019-05-13T01:11:04.218Z,11.18
2019-05-13T01:11:43.878Z,11.27
2019-05-13T01:12:24.421Z,11.27
2019-05-13T01:13:05.127Z,11.26
2019-05-13T01:13:45.560Z,11.19
2019-05-13T01:14:26.112Z,11.23
2019-05-13T01:15:06.675Z,11.23
2019-05-13T01:15:47.244Z,11.19
2019-05-13T01:16:27.827Z,11.12
2019-05-13T01:17:08.386Z,11.12
2019-05-13T01:17:48.959Z,11.08
2019-05-13T01:18:29.522Z,11.12
2019-05-13T01:19:10.091Z,11.15
2019-05-13T01:19:50.675Z,11.14
2019-05-13T01:20:31.255Z,11.12
2019-05-13T01:21:13.265Z,11.08
2019-05-13T01:21:53.990Z,11.1
2019-05-13T01:22:34.360Z,11.07
2019-05-13T01:23:14.069Z,11.07
2019-05-13T01:23:54.387Z,11.08
2019-05-13T01:24:34.688Z,11.02
2019-05-13T01:25:15.257Z,11.07
2019-05-13T01:25:55.816Z,11.05
2019-05-13T01:26:36.391Z,11.05
2019-05-13T01:27:16.989Z,11.04
2019-05-13T01:27:57.576Z,11
2019-05-13T01:28:38.134Z,11.1
2019-05-13T01:29:18.681Z,11.04
2019-05-13T01:29:59.221Z,11
2019-05-13T01:30:39.797Z,11.08
2019-05-13T01:31:20.375Z,11
2019-05-13T01:32:00.925Z,11.04
2019-05-13T01:32:41.482Z,10.96
2019-05-13T01:33:23.502Z,11.1
2019-05-13T01:34:03.993Z,11.04
2019-05-13T01:34:44.305Z,11
2019-05-13T01:35:23.825Z,11.07
2019-05-13T01:36:05.189Z,11.04
2019-05-13T01:36:44.924Z,11
2019-05-13T01:37:39.011Z,11.04
2019-05-13T01:38:06.075Z,11.1
2019-05-13T01:38:46.648Z,11.07
2019-05-13T01:39:27.188Z,11.04
2019-05-13T01:40:07.755Z,11
2019-05-13T01:40:48.327Z,11.05
2019-05-13T01:41:28.896Z,11
2019-05-13T01:42:09.463Z,10.96
2019-05-13T01:42:50.034Z,10.93
2019-05-13T01:43:30.597Z,10.97
2019-05-13T01:44:11.168Z,10.87
2019-05-13T01:44:53.401Z,10.87
2019-05-13T01:45:33.680Z,11.02
2019-05-13T01:46:13.435Z,10.99
2019-05-13T01:46:53.814Z,10.94
2019-05-13T01:47:34.496Z,10.93
2019-05-13T01:48:14.635Z,10.84
2019-05-13T01:48:55.214Z,10.94
2019-05-13T01:49:35.829Z,10.9
2019-05-13T01:50:16.403Z,10.9
2019-05-13T01:50:56.993Z,10.84
2019-05-13T01:51:37.540Z,10.93
2019-05-13T01:52:18.101Z,10.92
2019-05-13T01:52:58.716Z,10.9
2019-05-13T01:53:39.308Z,10.82
2019-05-13T01:54:19.898Z,10.87
2019-05-13T01:55:00.473Z,10.86
2019-05-13T01:55:41.063Z,10.87
2019-05-13T01:56:23.515Z,10.87
2019-05-13T01:57:04.326Z,10.84
2019-05-13T01:57:44.238Z,10.86
2019-05-13T01:58:23.643Z,10.84
2019-05-13T01:59:03.936Z,10.79
2019-05-13T01:59:44.482Z,10.82
2019-05-13T02:00:25.057Z,10.82
2019-05-13T02:01:05.625Z,10.78
2019-05-13T02:01:46.167Z,10.76
2019-05-13T02:02:26.740Z,10.75
2019-05-13T02:03:07.303Z,10.75
2019-05-13T02:03:47.861Z,10.78
2019-05-13T02:04:28.430Z,10.72
2019-05-13T02:05:08.988Z,10.76
2019-05-13T02:05:49.559Z,10.76
2019-05-13T02:06:30.126Z,10.74
2019-05-13T02:07:10.684Z,10.71
2019-05-13T02:07:57.547Z,10.79
2019-05-13T02:08:33.620Z,10.82
2019-05-13T02:09:14.126Z,10.76
2019-05-13T02:09:53.449Z,10.72
2019-05-13T02:10:33.815Z,10.72
2019-05-13T02:11:14.062Z,10.75
2019-05-13T02:11:54.643Z,10.78
2019-05-13T02:12:35.206Z,10.81
2019-05-13T02:13:15.800Z,10.78
2019-05-13T02:13:56.345Z,10.72
2019-05-13T02:14:36.933Z,10.75
2019-05-13T02:15:17.498Z,10.79
2019-05-13T02:15:58.061Z,10.75
2019-05-13T02:16:38.615Z,10.72
2019-05-13T02:17:19.161Z,10.76
2019-05-13T02:18:00.478Z,10.78
2019-05-13T02:18:41.037Z,10.78
2019-05-13T02:19:21.611Z,10.78
2019-05-13T02:20:03.843Z,10.71
2019-05-13T02:20:44.237Z,10.72
2019-05-13T02:21:24.094Z,10.78
2019-05-13T02:22:04.332Z,10.79
2019-05-13T02:22:44.795Z,10.76
2019-05-13T02:23:25.100Z,10.81
2019-05-13T02:24:05.660Z,10.79
2019-05-13T02:24:46.212Z,10.71
2019-05-13T02:25:26.789Z,10.68
2019-05-13T02:26:07.356Z,10.68
2019-05-13T02:26:47.911Z,10.76
2019-05-13T02:27:28.498Z,10.63
2019-05-13T02:28:10.648Z,10.72
2019-05-13T02:28:49.680Z,10.57
2019-05-13T02:29:30.245Z,10.63
2019-05-13T02:30:10.784Z,10.6
2019-05-13T02:30:51.357Z,10.61
2019-05-13T02:31:45.081Z,10.54
2019-05-13T02:32:13.596Z,10.59
2019-05-13T02:32:53.255Z,10.64
2019-05-13T02:33:34.198Z,10.63
2019-05-13T02:34:14.220Z,10.54
2019-05-13T02:34:54.810Z,10.56
2019-05-13T02:35:35.392Z,10.59
2019-05-13T02:36:15.945Z,10.57
2019-05-13T02:36:56.510Z,10.61
2019-05-13T02:37:37.093Z,10.51
2019-05-13T02:38:24.402Z,10.48
2019-05-13T02:38:58.211Z,10.56
2019-05-13T02:39:38.806Z,10.59
2019-05-13T02:40:22.372Z,10.54
2019-05-13T02:41:02.685Z,10.53
2019-05-13T02:41:43.087Z,10.54
2019-05-13T02:42:22.822Z,10.53
2019-05-13T02:43:02.838Z,10.56
2019-05-13T02:43:45.144Z,10.54
2019-05-13T02:44:22.859Z,10.46
2019-05-13T02:45:03.837Z,10.46
2019-05-13T02:45:43.927Z,10.46
2019-05-13T02:46:24.501Z,10.38
2019-05-13T02:47:05.044Z,10.41
2019-05-13T02:47:45.602Z,10.37
2019-05-13T02:48:26.161Z,10.44
2019-05-13T02:49:06.713Z,10.31
2019-05-13T02:49:47.315Z,10.42
2019-05-13T02:50:27.877Z,10.42
2019-05-13T02:51:08.437Z,10.31
2019-05-13T02:51:49.004Z,10.4
2019-05-13T02:52:33.176Z,10.35
2019-05-13T02:53:13.300Z,10.35
2019-05-13T02:53:52.305Z,10.38
2019-05-13T02:54:34.012Z,10.28
2019-05-13T02:55:12.428Z,10.33
2019-05-13T02:55:52.733Z,10.31
2019-05-13T02:56:33.251Z,10.3
2019-05-13T02:57:13.556Z,10.3
2019-05-13T02:57:54.159Z,10.35
2019-05-13T02:58:34.704Z,10.3
2019-05-13T02:59:15.268Z,10.31
2019-05-13T02:59:55.860Z,10.31
2019-05-13T03:00:36.427Z,10.31
2019-05-13T03:01:17.003Z,10.28
2019-05-13T03:01:57.575Z,10.34
2019-05-13T03:02:38.733Z,10.35
2019-05-13T03:03:22.635Z,10.3
2019-05-13T03:04:02.721Z,10.35
2019-05-13T03:04:43.277Z,10.26
2019-05-13T03:05:21.896Z,10.25
2019-05-13T03:06:02.857Z,10.34
2019-05-13T03:06:43.438Z,10.33
2019-05-13T03:07:23.408Z,10.28
2019-05-13T03:08:03.661Z,10.31
2019-05-13T03:08:49.311Z,10.33
2019-05-13T03:09:24.471Z,10.19
2019-05-13T03:10:05.056Z,10.3
2019-05-13T03:10:45.654Z,10.19
2019-05-13T03:11:26.246Z,10.19
2019-05-13T03:12:06.856Z,10.22
2019-05-13T03:12:47.401Z,10.23
2019-05-13T03:13:27.977Z,10.23
2019-05-13T03:14:08.572Z,10.2
2019-05-13T03:14:49.129Z,10.25
2019-05-13T03:15:32.648Z,10.19
2019-05-13T03:16:13.079Z,10.3
2019-05-13T03:16:52.417Z,10.22
2019-05-13T03:17:32.610Z,10.2
2019-05-13T03:18:13.412Z,10.22
2019-05-13T03:18:53.593Z,10.23
2019-05-13T03:19:34.173Z,10.23
2019-05-13T03:22:33.646Z,10.2
2019-05-13T03:23:14.253Z,10.25
2019-05-13T03:23:54.867Z,10.23
2019-05-13T03:24:35.482Z,10.23
2019-05-13T03:25:16.054Z,10.2
2019-05-13T03:25:56.609Z,10.25
2019-05-13T03:26:37.211Z,10.2
2019-05-13T03:27:20.437Z,10.19
2019-05-13T03:27:58.374Z,10.25
2019-05-13T03:28:38.947Z,10.25
2019-05-13T03:29:22.122Z,10.22
2019-05-13T03:30:04.159Z,10.22
2019-05-13T03:30:45.646Z,10.23
2019-05-13T03:31:26.082Z,10.2
2019-05-13T03:32:06.273Z,10.2
2019-05-13T03:32:50.635Z,10.19
2019-05-13T03:33:27.650Z,10.2
2019-05-13T03:34:06.277Z,10.17
2019-05-13T03:34:45.728Z,10.22
2019-05-13T03:35:27.320Z,10.25
2019-05-13T03:36:07.063Z,10.2
2019-05-13T03:36:46.793Z,10.22
2019-05-13T03:37:27.326Z,10.23
2019-05-13T03:38:06.975Z,10.23
2019-05-13T03:39:01.003Z,10.2
2019-05-13T03:39:28.095Z,10.2
2019-05-13T03:40:08.665Z,10.26
2019-05-13T03:40:52.344Z,10.23
2019-05-13T03:41:32.586Z,10.26
2019-05-13T03:42:12.283Z,10.17
2019-05-13T03:42:53.336Z,10.2
2019-05-13T03:43:32.569Z,10.25
2019-05-13T03:44:13.356Z,10.2
2019-05-13T03:44:52.764Z,10.22
2019-05-13T03:45:33.316Z,10.2
2019-05-13T03:46:13.869Z,10.2
2019-05-13T03:46:54.458Z,10.2
2019-05-13T03:47:35.070Z,10.19
2019-05-13T03:48:15.619Z,10.19
2019-05-13T03:48:56.183Z,10.19
2019-05-13T03:49:36.764Z,10.17
2019-05-13T03:50:17.316Z,10.09
2019-05-13T03:50:57.880Z,10.2
2019-05-13T03:51:38.435Z,10.15
2019-05-13T03:52:22.240Z,10.19
2019-05-13T03:53:02.512Z,10.15
2019-05-13T03:53:42.811Z,10.2
2019-05-13T03:54:22.636Z,10.16
2019-05-13T03:55:03.109Z,10.2
2019-05-13T03:55:43.359Z,10.19
2019-05-13T03:56:23.470Z,10.22
2019-05-13T03:57:03.882Z,10.2
2019-05-13T03:57:43.679Z,10.16
2019-05-13T03:58:24.277Z,10.04
2019-05-13T03:59:04.802Z,10.23
2019-05-13T03:59:45.369Z,10.12
2019-05-13T04:00:25.943Z,10.2
2019-05-13T04:01:06.580Z,10.12
2019-05-13T04:01:47.137Z,10.12
2019-05-13T04:02:27.731Z,10.09
2019-05-13T04:03:08.297Z,10.15
2019-05-13T04:03:48.844Z,10.07
2019-05-13T04:04:32.338Z,10.12
2019-05-13T04:05:12.830Z,10.07
2019-05-13T04:05:52.654Z,10.07
2019-05-13T04:06:32.300Z,10.07
2019-05-13T04:07:12.902Z,10.13
2019-05-13T04:07:52.673Z,10.09
2019-05-13T04:08:32.961Z,10.02
2019-05-13T04:09:25.390Z,9.99
2019-05-13T04:09:53.913Z,10.1
2019-05-13T04:10:34.467Z,10.01
2019-05-13T04:11:15.049Z,9.98
2019-05-13T04:11:55.620Z,10.02
2019-05-13T04:12:36.186Z,9.99
2019-05-13T04:13:16.748Z,9.97
2019-05-13T04:13:57.311Z,10.09
2019-05-13T04:14:37.865Z,10.01
2019-05-13T04:15:18.438Z,9.94
2019-05-13T04:15:58.977Z,9.95
2019-05-13T04:16:42.490Z,9.95
2019-05-13T04:17:20.118Z,9.97
2019-05-13T04:18:02.636Z,9.92
2019-05-13T04:18:42.497Z,9.92
2019-05-13T04:19:23.124Z,10.02
2019-05-13T04:20:03.167Z,9.94
2019-05-13T04:20:43.212Z,9.99
2019-05-13T04:21:23.802Z,9.95
2019-05-13T04:22:04.408Z,10.01
2019-05-13T04:22:44.977Z,9.97
2019-05-13T04:23:25.596Z,9.99
2019-05-13T04:24:06.165Z,10.01
2019-05-13T04:24:46.758Z,10.01
2019-05-13T04:25:27.292Z,10.05
2019-05-13T04:26:07.859Z,10.04
2019-05-13T04:26:48.425Z,10.01
2019-05-13T04:27:32.271Z,10.04
2019-05-13T04:28:09.509Z,10.07
2019-05-13T04:28:52.556Z,10.01
2019-05-13T04:29:32.834Z,10.07
2019-05-13T04:30:13.259Z,10.07
2019-05-13T04:30:52.526Z,10.1
2019-05-13T04:31:33.251Z,10.1
2019-05-13T04:32:13.241Z,10.09
2019-05-13T04:32:53.764Z,10.04
2019-05-13T04:33:34.127Z,10.1
2019-05-13T04:34:14.711Z,10.07
2019-05-13T04:34:55.297Z,10.07
2019-05-13T04:35:35.908Z,10.1
2019-05-13T04:36:16.491Z,10.07
2019-05-13T04:36:57.050Z,10.09
2019-05-13T04:37:37.610Z,10.07
2019-05-13T04:38:18.174Z,10.09
2019-05-13T04:38:58.768Z,10.01
2019-05-13T04:39:47.075Z,10.05
2019-05-13T04:40:23.003Z,10.07
2019-05-13T04:41:03.390Z,10.1
2019-05-13T04:41:42.355Z,10.07
2019-05-13T04:42:23.070Z,10.1
2019-05-13T04:43:02.985Z,10.01
2019-05-13T04:43:44.095Z,10.04
2019-05-13T04:44:24.094Z,10.09
2019-05-13T04:45:04.069Z,10.07
2019-05-13T04:45:44.643Z,10.09
2019-05-13T04:46:25.211Z,10.1
2019-05-13T04:47:05.802Z,10.09
2019-05-13T04:47:46.383Z,10.12
2019-05-13T04:48:26.943Z,10.12
2019-05-13T04:49:07.541Z,10.13
2019-05-13T04:49:48.080Z,10.09
2019-05-13T04:50:28.656Z,10.12
2019-05-13T04:51:09.199Z,10.1
2019-05-13T04:51:52.294Z,10.12
2019-05-13T04:52:32.960Z,10.05
2019-05-13T04:53:13.600Z,10.1
2019-05-13T04:53:55.966Z,10.15
2019-05-13T04:54:33.046Z,10.15
2019-05-13T04:55:13.220Z,10.17
2019-05-13T04:55:53.255Z,10.09
2019-05-13T04:56:33.835Z,10.1
2019-05-13T04:57:14.402Z,10.19
2019-05-13T04:57:54.960Z,10.2
2019-05-13T04:58:35.533Z,10.17
2019-05-13T04:59:16.107Z,10.13
2019-05-13T04:59:56.700Z,10.15
2019-05-13T05:00:37.273Z,10.15
2019-05-13T05:01:17.913Z,10.17
2019-05-13T05:01:59.541Z,10.19
2019-05-13T05:02:45.868Z,10.07
2019-05-13T05:03:22.202Z,10.15
2019-05-13T05:04:02.925Z,10.07
2019-05-13T05:04:43.489Z,10.17
2019-05-13T05:05:22.454Z,10.19
2019-05-13T05:06:03.184Z,10.41
2019-05-13T05:06:42.627Z,10.34
2019-05-13T05:07:23.160Z,10.44
2019-05-13T05:08:03.755Z,10.48
2019-05-13T05:08:47.075Z,10.41
2019-05-13T05:09:24.954Z,10.57
2019-05-13T05:10:30.068Z,10.44
2019-05-13T05:10:49.927Z,10.49
2019-05-13T05:13:02.075Z,10.44
2019-05-13T05:13:42.583Z,10.44
2019-05-13T05:14:22.407Z,10.31
2019-05-13T05:15:02.758Z,10.34
2019-05-13T05:15:41.844Z,10.34
2019-05-13T05:16:22.132Z,10.38
2019-05-13T05:17:03.361Z,10.34
2019-05-13T05:17:43.225Z,10.28
2019-05-13T05:18:23.771Z,10.38
2019-05-13T05:19:04.333Z,10.35
2019-05-13T05:19:47.321Z,10.3
2019-05-13T05:20:25.572Z,10.28
2019-05-13T05:21:06.236Z,10.3
2019-05-13T05:21:46.817Z,10.41
2019-05-13T05:22:27.401Z,10.34
2019-05-13T05:23:07.959Z,10.3
2019-05-13T05:23:48.529Z,10.38
2019-05-13T05:24:29.079Z,10.31
2019-05-13T05:25:11.639Z,10.48
2019-05-13T05:25:52.134Z,10.4
2019-05-13T05:26:31.281Z,10.48
2019-05-13T05:27:12.018Z,10.53
2019-05-13T05:27:51.881Z,10.49
2019-05-13T05:28:32.447Z,10.4
2019-05-13T05:29:13.007Z,10.49
2019-05-13T05:29:53.577Z,10.53
2019-05-13T05:30:34.133Z,10.71
2019-05-13T05:31:14.707Z,10.89
2019-05-13T05:31:55.271Z,11.12
2019-05-13T05:32:36.087Z,11.29
2019-05-13T05:33:16.419Z,11.48
2019-05-13T05:33:57.033Z,11.66
2019-05-13T05:34:37.610Z,11.86
2019-05-13T05:35:18.176Z,11.97
2019-05-13T05:36:01.574Z,12.27
2019-05-13T05:36:41.271Z,12.53
2019-05-13T05:37:21.691Z,12.61
2019-05-13T05:38:01.503Z,12.86
2019-05-13T05:38:43.119Z,12.98
2019-05-13T05:39:22.601Z,13.18
2019-05-13T05:40:02.167Z,13.41
2019-05-13T05:40:42.715Z,13.46
2019-05-13T05:41:23.282Z,13.6
2019-05-13T05:42:03.884Z,13.75
2019-05-13T05:42:44.443Z,13.81
2019-05-13T05:43:25.006Z,13.95
2019-05-13T05:44:05.577Z,13.97
2019-05-13T05:44:46.147Z,14.03
2019-05-13T05:45:26.726Z,14.17
2019-05-13T05:46:07.285Z,14.23
2019-05-13T05:46:47.931Z,14.3
2019-05-13T05:47:28.495Z,14.3
2019-05-13T05:48:09.078Z,14.33
2019-05-13T05:48:50.781Z,14.51
2019-05-13T05:49:31.972Z,14.5
2019-05-13T05:50:12.062Z,14.62
2019-05-13T05:53:24.791Z,15
2019-05-13T05:54:05.364Z,14.89
2019-05-13T05:54:45.933Z,14.88
2019-05-13T05:55:26.537Z,14.84
2019-05-13T05:56:07.144Z,14.78
2019-05-13T05:56:47.693Z,14.88
2019-05-13T05:57:28.244Z,14.91
2019-05-13T05:58:08.854Z,15
2019-05-13T05:58:49.450Z,15
2019-05-13T05:59:31.975Z,15.14
2019-05-13T06:00:11.473Z,15.31
2019-05-13T06:00:52.035Z,15.42
2019-05-13T06:01:32.757Z,15.51
2019-05-13T06:02:12.508Z,15.61
2019-05-13T06:02:53.318Z,15.7
2019-05-13T06:03:33.502Z,15.75
2019-05-13T06:04:14.116Z,15.83
2019-05-13T06:04:55.284Z,15.77
2019-05-13T06:05:36.161Z,15.67
2019-05-13T06:06:16.736Z,15.68
2019-05-13T06:06:57.320Z,15.73
2019-05-13T06:07:37.953Z,15.83
2019-05-13T06:08:18.512Z,15.8
2019-05-13T06:08:59.087Z,15.94
2019-05-13T06:09:42.091Z,15.95
2019-05-13T06:10:22.410Z,15.91
2019-05-13T06:11:01.377Z,15.95
2019-05-13T06:11:41.764Z,15.98
2019-05-13T06:12:22.039Z,16.1
2019-05-13T06:13:02.634Z,16.17
2019-05-13T06:13:43.233Z,16.32
2019-05-13T06:14:23.840Z,16.41
2019-05-13T06:15:04.435Z,16.47
2019-05-13T06:15:45.007Z,16.41
2019-05-13T06:16:25.570Z,16.46
2019-05-13T06:17:06.190Z,16.5
2019-05-13T06:17:46.756Z,16.56
2019-05-13T06:18:27.401Z,16.54
2019-05-13T06:19:07.962Z,16.64
2019-05-13T06:19:48.547Z,16.76
2019-05-13T06:20:31.432Z,16.74
2019-05-13T06:21:11.963Z,16.81
2019-05-13T06:21:51.306Z,16.87
2019-05-13T06:22:32.035Z,16.97
2019-05-13T06:23:11.650Z,16.99
2019-05-13T06:23:52.157Z,16.94
2019-05-13T06:24:32.746Z,16.9
2019-05-13T06:25:14.393Z,16.87
2019-05-13T06:25:53.904Z,16.86
2019-05-13T06:26:34.545Z,16.84
2019-05-13T06:27:15.198Z,16.87
2019-05-13T06:27:55.749Z,16.79
2019-05-13T06:28:36.354Z,16.79
2019-05-13T06:29:16.956Z,16.74
2019-05-13T06:29:57.569Z,16.76
2019-05-13T06:30:38.158Z,16.79
2019-05-13T06:31:18.788Z,16.81
2019-05-13T06:32:14.790Z,16.76
2019-05-13T06:32:41.817Z,16.76
2019-05-13T06:33:21.213Z,16.83
2019-05-13T06:34:02.028Z,16.81
2019-05-13T06:34:41.826Z,16.86
2019-05-13T06:35:22.377Z,16.9
2019-05-13T06:36:03.007Z,16.97
2019-05-13T06:36:43.578Z,17.02
2019-05-13T06:37:24.157Z,16.99
2019-05-13T06:38:04.740Z,17.01
2019-05-13T06:38:45.551Z,17.01
2019-05-13T06:39:26.274Z,17.05
2019-05-13T06:40:06.902Z,16.99
2019-05-13T06:40:59.227Z,17.08
2019-05-13T06:41:28.123Z,17.06
2019-05-13T06:42:08.741Z,17.05
2019-05-13T06:42:49.322Z,17.01
2019-05-13T06:43:31.428Z,17.05
2019-05-13T06:44:12.120Z,17.06
2019-05-13T06:44:51.523Z,17.09
2019-05-13T06:45:31.917Z,17.24
2019-05-13T06:46:12.549Z,17.19
2019-05-13T06:46:53.085Z,17.15
2019-05-13T06:47:36.142Z,17.24
2019-05-13T06:48:14.234Z,17.31
2019-05-13T06:48:54.815Z,17.33
2019-05-13T06:49:35.392Z,17.39
2019-05-13T06:50:15.961Z,17.27
2019-05-13T06:53:31.952Z,17.3
2019-05-13T06:54:11.234Z,17.33
2019-05-13T06:54:51.963Z,17.42
2019-05-13T06:55:31.794Z,17.41
2019-05-13T06:56:12.379Z,17.34
2019-05-13T06:56:53.042Z,17.39
2019-05-13T06:57:33.681Z,17.34
2019-05-13T06:58:14.307Z,17.38
2019-05-13T06:58:54.834Z,17.33
2019-05-13T06:59:35.515Z,17.39
2019-05-13T07:00:16.132Z,17.44
2019-05-13T07:00:58.167Z,17.44
2019-05-13T07:01:37.537Z,17.51
2019-05-13T07:04:36.426Z,17.78
2019-05-13T07:05:17.033Z,17.78
2019-05-13T07:05:57.607Z,17.72
2019-05-13T07:06:38.251Z,17.72
2019-05-13T07:07:21.594Z,17.76
2019-05-13T07:08:01.719Z,17.86
2019-05-13T07:08:41.495Z,17.86
2019-05-13T07:09:21.569Z,17.9
2019-05-13T07:10:02.436Z,17.95
2019-05-13T07:10:41.748Z,18.01
2019-05-13T07:11:24.891Z,18.1
2019-05-13T07:12:03.596Z,18.16
2019-05-13T07:12:43.593Z,18.23
2019-05-13T07:13:24.218Z,18.22
2019-05-13T07:14:04.839Z,18.29
2019-05-13T07:14:45.415Z,18.33
2019-05-13T07:15:26.001Z,18.31
2019-05-13T07:16:06.561Z,18.34
2019-05-13T07:16:47.146Z,18.45
2019-05-13T07:17:27.718Z,18.37
2019-05-13T07:18:08.552Z,18.45
2019-05-13T07:18:49.132Z,18.47
2019-05-13T07:19:31.832Z,18.45
2019-05-13T07:20:11.544Z,18.44
2019-05-13T07:20:52.973Z,18.41
2019-05-13T07:21:32.269Z,18.56
2019-05-13T07:22:12.047Z,18.53
2019-05-13T07:22:53.261Z,18.6
2019-05-13T07:23:33.303Z,18.6
2019-05-13T07:24:13.880Z,18.66
2019-05-13T07:24:54.495Z,18.62
2019-05-13T07:25:35.073Z,18.75
2019-05-13T07:26:15.679Z,18.71
2019-05-13T07:26:56.304Z,18.65
2019-05-13T07:27:36.886Z,18.65
2019-05-13T07:28:17.497Z,18.7
2019-05-13T07:28:58.549Z,18.63
2019-05-13T07:29:38.691Z,18.7
2019-05-13T07:30:21.241Z,18.55
2019-05-13T07:31:02.032Z,18.6
2019-05-13T07:31:42.158Z,18.53
2019-05-13T07:32:22.071Z,18.63
2019-05-13T07:33:01.816Z,18.63
2019-05-13T07:33:42.678Z,18.8
2019-05-13T07:34:24.434Z,18.8
2019-05-13T07:35:04.301Z,18.92
2019-05-13T07:35:45.547Z,18.9
2019-05-13T07:36:24.599Z,19.02
2019-05-13T07:37:05.185Z,19.02
2019-05-13T07:37:45.796Z,19.04
2019-05-13T07:38:26.385Z,19.15
2019-05-13T07:39:06.964Z,19.18
2019-05-13T07:39:47.563Z,19.26
2019-05-13T07:40:28.147Z,19.26
2019-05-13T07:41:08.738Z,19.15
2019-05-13T07:41:51.802Z,19.29
2019-05-13T07:42:31.213Z,19.14
2019-05-13T07:43:12.259Z,19.02
2019-05-13T07:43:51.754Z,19.04
2019-05-13T07:44:32.471Z,18.89
2019-05-13T07:45:12.461Z,18.89
2019-05-13T07:45:52.955Z,18.99
2019-05-13T07:46:33.518Z,18.98
2019-05-13T07:47:15.915Z,19.04
2019-05-13T07:47:54.688Z,19.14
2019-05-13T07:48:35.274Z,19.04
2019-05-13T07:49:15.877Z,18.99
2019-05-13T07:49:56.457Z,19.04
2019-05-13T07:50:51.462Z,19.14
2019-05-13T07:51:17.617Z,19
2019-05-13T07:51:58.191Z,18.99
2019-05-13T07:52:38.777Z,19.04
2019-05-13T07:53:22.004Z,18.99
2019-05-13T07:54:02.101Z,18.99
2019-05-13T07:54:41.938Z,19
2019-05-13T07:55:22.244Z,19
2019-05-13T07:56:02.034Z,18.99
2019-05-13T07:56:42.695Z,19.04
2019-05-13T07:57:23.012Z,18.95
2019-05-13T07:58:03.585Z,18.93
2019-05-13T07:58:44.156Z,18.92
2019-05-13T07:59:24.743Z,18.99
2019-05-13T08:00:05.334Z,18.89
2019-05-13T08:00:45.957Z,18.96
2019-05-13T08:01:26.539Z,18.98
2019-05-13T08:02:07.137Z,18.95
2019-05-13T08:02:47.693Z,19.07
2019-05-13T08:03:28.282Z,18.99
2019-05-13T08:04:19.002Z,19
2019-05-13T08:04:52.485Z,18.99
2019-05-13T08:05:31.391Z,19.15
2019-05-13T08:06:11.107Z,19.19
2019-05-13T08:06:52.333Z,19.15
2019-05-13T08:07:31.861Z,19.02
2019-05-13T08:08:12.428Z,18.88
2019-05-13T08:08:53.490Z,18.93
2019-05-13T08:09:34.277Z,18.81
2019-05-13T08:10:14.890Z,18.78
2019-05-13T08:10:55.456Z,18.77
2019-05-13T08:11:53.536Z,18.84
2019-05-13T08:12:16.866Z,18.95
2019-05-13T08:12:57.270Z,18.8
2019-05-13T08:13:37.839Z,18.73
2019-05-13T08:14:18.434Z,18.75
2019-05-13T08:14:59.010Z,18.77
2019-05-13T08:15:41.947Z,18.77
2019-05-13T08:16:22.252Z,18.7
2019-05-13T08:17:02.535Z,18.8
2019-05-13T08:17:47.164Z,18.73
2019-05-13T08:18:22.477Z,18.77
2019-05-13T08:19:03.068Z,18.71
2019-05-13T08:19:43.727Z,18.58
2019-05-13T08:20:24.313Z,18.6
2019-05-13T08:21:04.884Z,18.49
2019-05-13T08:21:45.560Z,18.43
2019-05-13T08:22:26.139Z,18.45
2019-05-13T08:23:06.716Z,18.44
2019-05-13T08:23:47.287Z,18.43
2019-05-13T08:24:27.869Z,18.33
2019-05-13T08:25:08.468Z,18.38
2019-05-13T08:25:51.249Z,18.34
2019-05-13T08:26:31.991Z,18.13
2019-05-13T08:27:11.748Z,18.15
2019-05-13T08:27:51.422Z,17.92
2019-05-13T08:28:32.248Z,17.9
2019-05-13T08:29:11.913Z,17.79
2019-05-13T08:29:52.517Z,17.71
2019-05-13T08:30:33.085Z,17.59
2019-05-13T08:31:13.719Z,17.54
2019-05-13T08:31:54.319Z,17.51
2019-05-13T08:32:34.907Z,17.33
2019-05-13T08:33:15.488Z,17.34
2019-05-13T08:33:56.138Z,17.2
2019-05-13T08:34:36.770Z,17.22
2019-05-13T08:35:17.342Z,17.23
2019-05-13T08:35:58.786Z,17.19
2019-05-13T08:36:39.534Z,17.14
2019-05-13T08:37:21.438Z,17.23
2019-05-13T08:38:01.332Z,17.22
2019-05-13T08:38:42.898Z,17.31
2019-05-13T08:39:21.585Z,17.33
2019-05-13T08:40:01.732Z,17.44
2019-05-13T08:40:42.510Z,17.48
2019-05-13T08:41:23.407Z,17.48
2019-05-13T08:42:14.936Z,17.49
2019-05-13T08:42:43.767Z,17.45
2019-05-13T08:43:24.319Z,17.48
2019-05-13T08:44:04.924Z,17.6
2019-05-13T08:44:45.484Z,17.67
2019-05-13T08:45:26.453Z,17.6
2019-05-13T08:46:07.050Z,17.57
2019-05-13T08:46:47.615Z,17.41
2019-05-13T08:47:28.201Z,17.3
2019-05-13T08:48:08.770Z,17.24
2019-05-13T08:48:51.505Z,17.08
2019-05-13T08:49:32.199Z,16.91
2019-05-13T08:50:11.898Z,16.75
2019-05-13T08:50:52.120Z,16.72
2019-05-13T08:51:34.612Z,16.72
2019-05-13T08:52:12.356Z,16.66
2019-05-13T08:52:52.857Z,16.72
2019-05-13T08:53:33.441Z,16.71
2019-05-13T08:54:14.018Z,16.75
2019-05-13T08:54:54.637Z,16.86
2019-05-13T08:55:35.254Z,16.83
2019-05-13T08:56:15.843Z,17.02
2019-05-13T08:56:56.420Z,16.99